Time;durP1;ratioP1;P1;durP2;ratioP2;P2;SDS_P1;SDS_P2;PMS_P1;PMS_P2;Temp;Humidity;BMP_temperature;BMP_pressure;BME280_temperature;BME280_humidity;BME280_pressure;Samples;Min_cycle;Max_cycle;Signal;HPM_P1;HPM_P2
2023/06/21 00:00:45;;;;;;;;;;;24.20;72.70;;;;;;5033916;28;20749;-70
2023/06/21 00:03:11;;;;;;;;;;;24.20;72.60;;;;;;5050783;28;20399;-69
2023/06/21 00:05:38;;;;;;;;;;;24.20;72.50;;;;;;5036758;28;19925;-70
2023/06/21 00:08:04;;;;;;;;;;;24.20;72.50;;;;;;5051387;28;20372;-70
2023/06/21 00:10:30;;;;;;;;;;;24.20;72.50;;;;;;5051647;28;19920;-70
2023/06/21 00:12:56;;;;;;;;;;;24.10;72.40;;;;;;5051559;28;20308;-70
2023/06/21 00:15:22;;;;;;;;;;;24.10;72.20;;;;;;5051557;28;19928;-70
2023/06/21 00:17:48;;;;;;;;;;;24.10;72.10;;;;;;5051985;28;19917;-69
2023/06/21 00:20:13;;;;;;;;;;;24.00;72.10;;;;;;5051471;28;19921;-69
2023/06/21 00:22:39;;;;;;;;;;;23.90;72.10;;;;;;5048493;28;19940;-69
2023/06/21 00:25:05;;;;;;;;;;;23.90;72.10;;;;;;5071857;28;19920;-69
2023/06/21 00:27:31;;;;;;;;;;;23.90;72.20;;;;;;5071028;28;19912;-69
2023/06/21 00:29:56;;;;;;;;;;;23.90;72.30;;;;;;5071223;28;19921;-69
2023/06/21 00:32:22;;;;;;;;;;;23.80;72.20;;;;;;5055351;28;20327;-69
2023/06/21 00:34:47;;;;;;;;;;;23.80;72.10;;;;;;5050894;28;20296;-68
2023/06/21 00:37:13;;;;;;;;;;;23.80;72.10;;;;;;5050279;28;19913;-69
2023/06/21 00:39:38;;;;;;;;;;;23.80;72.10;;;;;;5051072;28;20350;-69
2023/06/21 00:42:04;;;;;;;;;;;23.70;71.90;;;;;;5051150;28;20007;-69
2023/06/21 00:44:30;;;;;;;;;;;23.70;71.80;;;;;;5050921;28;20368;-69
2023/06/21 00:46:55;;;;;;;;;;;23.70;71.80;;;;;;5034631;28;19924;-69
2023/06/21 00:49:21;;;;;;;;;;;23.70;71.80;;;;;;5050173;28;19920;-69
2023/06/21 00:51:46;;;;;;;;;;;23.60;71.90;;;;;;5050729;28;20330;-69
2023/06/21 00:54:16;;;;;;;;;;;23.60;72.10;;;;;;5050719;28;20430;-70
2023/06/21 00:56:45;;;;;;;;;;;23.60;72.10;;;;;;5059920;28;20008;-70
2023/06/21 00:59:10;;;;;;;;;;;23.60;72.10;;;;;;5049984;28;19916;-70
2023/06/21 01:01:39;;;;;;;;;;;23.60;72.20;;;;;;5040266;28;19924;-71
2023/06/21 01:04:05;;;;;;;;;;;23.50;72.20;;;;;;5030680;28;20004;-72
2023/06/21 01:06:45;;;;;;;;;;;23.60;72.40;;;;;;5044358;28;19917;-71
2023/06/21 01:09:10;;;;;;;;;;;23.60;72.40;;;;;;5050537;28;19921;-71
2023/06/21 01:11:51;;;;;;;;;;;23.60;72.60;;;;;;5050990;28;20280;-71
2023/06/21 01:14:25;;;;;;;;;;;23.70;72.90;;;;;;5050248;28;20275;-71
2023/06/21 01:16:51;;;;;;;;;;;23.70;73.20;;;;;;5049568;28;20431;-71
2023/06/21 01:19:35;;;;;;;;;;;23.80;73.20;;;;;;5050301;28;19992;-71
2023/06/21 01:22:12;;;;;;;;;;;23.80;73.00;;;;;;5050091;28;19928;-71
2023/06/21 01:24:44;;;;;;;;;;;23.80;72.90;;;;;;5030374;28;19933;-71
2023/06/21 01:27:21;;;;;;;;;;;23.80;72.70;;;;;;5038759;28;19917;-71
2023/06/21 01:29:47;;;;;;;;;;;23.80;72.50;;;;;;5070250;28;20341;-71
2023/06/21 01:32:13;;;;;;;;;;;23.80;72.40;;;;;;5055345;28;19920;-71
2023/06/21 01:34:39;;;;;;;;;;;23.80;72.40;;;;;;5050064;28;20296;-71
2023/06/21 01:37:08;;;;;;;;;;;23.70;72.30;;;;;;5049930;28;19913;-71
2023/06/21 01:39:33;;;;;;;;;;;23.70;72.20;;;;;;5050072;28;19920;-71
2023/06/21 01:41:58;;;;;;;;;;;23.70;72.20;;;;;;5050184;28;19913;-71
2023/06/21 01:44:25;;;;;;;;;;;23.70;72.10;;;;;;5045026;28;19931;-72
2023/06/21 01:46:51;;;;;;;;;;;23.60;72.00;;;;;;5049062;28;19924;-72
2023/06/21 01:49:17;;;;;;;;;;;23.60;72.00;;;;;;5048645;28;19912;-72
2023/06/21 01:51:43;;;;;;;;;;;23.50;72.00;;;;;;5058045;28;19922;-73
2023/06/21 01:54:09;;;;;;;;;;;23.50;72.00;;;;;;5064358;28;19917;-72
2023/06/21 01:56:37;;;;;;;;;;;23.50;71.90;;;;;;5064992;28;19916;-72
2023/06/21 01:59:02;;;;;;;;;;;23.50;71.90;;;;;;5048330;28;20392;-71
2023/06/21 02:01:30;;;;;;;;;;;23.40;71.90;;;;;;5048975;28;19920;-71
2023/06/21 02:03:59;;;;;;;;;;;23.40;71.90;;;;;;5048933;28;20351;-71
2023/06/21 02:06:26;;;;;;;;;;;23.40;72.00;;;;;;5049193;28;20402;-72
2023/06/21 02:08:52;;;;;;;;;;;23.40;71.90;;;;;;5049301;28;19970;-71
2023/06/21 02:11:19;;;;;;;;;;;23.30;71.90;;;;;;5049671;28;20421;-71
2023/06/21 02:13:48;;;;;;;;;;;23.30;71.80;;;;;;5049304;28;19924;-71
2023/06/21 02:16:17;;;;;;;;;;;23.30;71.90;;;;;;5049547;28;19939;-72
2023/06/21 02:18:43;;;;;;;;;;;23.30;71.80;;;;;;5046290;28;20300;-71
2023/06/21 02:21:09;;;;;;;;;;;23.20;71.80;;;;;;5045760;28;20463;-71
2023/06/21 02:23:34;;;;;;;;;;;23.20;71.70;;;;;;5049141;28;20011;-72
2023/06/21 02:26:00;;;;;;;;;;;23.20;71.70;;;;;;5048172;28;19921;-71
2023/06/21 02:28:25;;;;;;;;;;;23.10;71.60;;;;;;5064464;28;19916;-72
2023/06/21 02:30:51;;;;;;;;;;;23.10;71.50;;;;;;5066045;28;20335;-72
2023/06/21 02:33:16;;;;;;;;;;;23.10;71.40;;;;;;5048700;28;20361;-72
2023/06/21 02:35:41;;;;;;;;;;;23.00;71.50;;;;;;5025663;28;19949;-71
2023/06/21 02:38:08;;;;;;;;;;;23.00;71.50;;;;;;5044635;28;20010;-72
2023/06/21 02:40:33;;;;;;;;;;;23.00;71.40;;;;;;5049285;28;19962;-71
2023/06/21 02:42:58;;;;;;;;;;;22.90;71.30;;;;;;5049371;28;19956;-71
2023/06/21 02:45:24;;;;;;;;;;;22.90;71.40;;;;;;5048845;28;20011;-72
2023/06/21 02:47:50;;;;;;;;;;;22.80;71.20;;;;;;5048523;28;19921;-71
2023/06/21 02:50:17;;;;;;;;;;;22.80;71.20;;;;;;5048941;28;20015;-71
2023/06/21 02:52:42;;;;;;;;;;;22.70;71.10;;;;;;5046830;28;20440;-71
2023/06/21 02:55:08;;;;;;;;;;;22.70;71.00;;;;;;5051413;28;20023;-71
2023/06/21 02:57:33;;;;;;;;;;;22.70;71.10;;;;;;5054452;28;19919;-71
2023/06/21 02:59:59;;;;;;;;;;;22.70;71.10;;;;;;5057590;28;20352;-71
2023/06/21 03:02:33;;;;;;;;;;;22.60;71.10;;;;;;5051895;28;19916;-71
2023/06/21 03:04:59;;;;;;;;;;;22.60;71.20;;;;;;5052352;28;19943;-71
2023/06/21 03:07:25;;;;;;;;;;;22.60;71.30;;;;;;5052038;28;20368;-72
2023/06/21 03:09:51;;;;;;;;;;;22.60;71.30;;;;;;5052838;28;20015;-72
2023/06/21 03:12:16;;;;;;;;;;;22.60;71.40;;;;;;5052775;28;19921;-72
2023/06/21 03:14:42;;;;;;;;;;;22.50;71.70;;;;;;5034952;28;20305;-72
2023/06/21 03:17:09;;;;;;;;;;;22.60;71.80;;;;;;5052755;28;19912;-72
2023/06/21 03:19:34;;;;;;;;;;;22.60;71.70;;;;;;5034882;28;19913;-72
2023/06/21 03:22:00;;;;;;;;;;;22.60;71.60;;;;;;5051974;28;20077;-71
2023/06/21 03:24:26;;;;;;;;;;;22.70;71.90;;;;;;5052791;28;20311;-72
2023/06/21 03:26:52;;;;;;;;;;;22.70;72.20;;;;;;5054755;28;19913;-72
2023/06/21 03:29:18;;;;;;;;;;;22.70;72.50;;;;;;5072413;28;20311;-72
2023/06/21 03:31:43;;;;;;;;;;;22.80;72.60;;;;;;5061867;28;19921;-72
2023/06/21 03:34:09;;;;;;;;;;;22.90;72.60;;;;;;5050505;28;19917;-72
2023/06/21 03:36:34;;;;;;;;;;;23.00;72.60;;;;;;5051184;28;19921;-72
2023/06/21 03:39:00;;;;;;;;;;;23.10;72.80;;;;;;5050534;28;19942;-72
2023/06/21 03:41:25;;;;;;;;;;;23.20;72.80;;;;;;5052394;28;20396;-72
2023/06/21 03:43:50;;;;;;;;;;;23.20;72.50;;;;;;5052096;28;20252;-72
2023/06/21 03:46:18;;;;;;;;;;;23.20;72.20;;;;;;5046344;28;19917;-73
2023/06/21 03:48:43;;;;;;;;;;;23.20;72.10;;;;;;5050357;28;20442;-73
2023/06/21 03:51:09;;;;;;;;;;;23.20;72.10;;;;;;5051485;28;20047;-73
2023/06/21 03:53:34;;;;;;;;;;;23.30;72.50;;;;;;5052112;28;20643;-71
2023/06/21 03:55:59;;;;;;;;;;;23.40;72.70;;;;;;5061073;28;20293;-71
2023/06/21 03:58:25;;;;;;;;;;;23.50;72.60;;;;;;5058032;28;20325;-71
2023/06/21 04:00:50;;;;;;;;;;;23.70;72.50;;;;;;5035354;28;19916;-70
2023/06/21 04:03:16;;;;;;;;;;;23.80;72.60;;;;;;5051789;28;19912;-71
2023/06/21 04:05:41;;;;;;;;;;;24.00;72.70;;;;;;5051856;28;19927;-72
2023/06/21 04:08:07;;;;;;;;;;;24.20;72.50;;;;;;5051599;28;20299;-72
2023/06/21 04:10:32;;;;;;;;;;;24.20;72.10;;;;;;5051046;28;19927;-72
2023/06/21 04:12:57;;;;;;;;;;;24.10;71.90;;;;;;5051660;28;19917;-75
2023/06/21 04:15:23;;;;;;;;;;;24.20;72.30;;;;;;5033796;28;19920;-73
2023/06/21 04:17:49;;;;;;;;;;;24.40;72.60;;;;;;5051955;28;20291;-73
2023/06/21 04:20:15;;;;;;;;;;;24.70;72.90;;;;;;5051710;28;19921;-73
2023/06/21 04:22:41;;;;;;;;;;;24.90;72.90;;;;;;5051220;28;19912;-73
2023/06/21 04:25:06;;;;;;;;;;;25.20;73.10;;;;;;5051390;28;19975;-72
2023/06/21 04:27:32;;;;;;;;;;;25.40;72.90;;;;;;5058257;28;19964;-72
2023/06/21 04:29:57;;;;;;;;;;;25.70;73.00;;;;;;5069863;28;20280;-72
2023/06/21 04:32:23;;;;;;;;;;;25.90;72.80;;;;;;5051810;28;19916;-72
2023/06/21 04:34:48;;;;;;;;;;;26.20;72.80;;;;;;5049601;28;19921;-73
2023/06/21 04:37:14;;;;;;;;;;;26.40;72.90;;;;;;5050870;28;19919;-73
2023/06/21 04:39:39;;;;;;;;;;;26.70;72.70;;;;;;5050921;28;19924;-74
2023/06/21 04:42:05;;;;;;;;;;;27.00;72.60;;;;;;5049944;28;20360;-72
2023/06/21 04:44:31;;;;;;;;;;;27.30;72.50;;;;;;5051170;28;19920;-73
2023/06/21 04:46:57;;;;;;;;;;;27.50;72.30;;;;;;5051056;28;20305;-74
2023/06/21 04:49:25;;;;;;;;;;;27.80;72.10;;;;;;5063159;28;19912;-74
2023/06/21 04:51:57;;;;;;;;;;;28.00;71.90;;;;;;5047201;28;19948;-74
2023/06/21 04:54:26;;;;;;;;;;;28.20;71.20;;;;;;5049901;28;20372;-74
2023/06/21 04:56:51;;;;;;;;;;;28.40;71.30;;;;;;5050641;28;20383;-74
2023/06/21 04:59:17;;;;;;;;;;;28.70;71.80;;;;;;5033177;28;19955;-74
2023/06/21 05:01:43;;;;;;;;;;;29.00;71.50;;;;;;5051030;28;19921;-74
2023/06/21 05:04:08;;;;;;;;;;;29.20;71.20;;;;;;5050739;28;19917;-74
2023/06/21 05:06:34;;;;;;;;;;;29.50;71.00;;;;;;5051085;28;20363;-75
2023/06/21 05:08:59;;;;;;;;;;;29.70;71.00;;;;;;5050818;28;19940;-75
2023/06/21 05:11:25;;;;;;;;;;;29.90;70.80;;;;;;5051095;28;19924;-75
2023/06/21 05:13:50;;;;;;;;;;;30.10;70.90;;;;;;5045084;28;19917;-75
2023/06/21 05:16:17;;;;;;;;;;;30.40;70.60;;;;;;5044088;28;19921;-75
2023/06/21 05:18:42;;;;;;;;;;;30.60;70.40;;;;;;5046548;28;20055;-75
2023/06/21 05:21:08;;;;;;;;;;;30.80;70.20;;;;;;5045811;28;20015;-76
2023/06/21 05:23:33;;;;;;;;;;;31.00;69.90;;;;;;5049760;28;20463;-75
2023/06/21 05:25:59;;;;;;;;;;;31.20;69.80;;;;;;5032408;28;20434;-76
2023/06/21 05:28:24;;;;;;;;;;;31.40;69.80;;;;;;5054657;28;19924;-76
2023/06/21 05:30:49;;;;;;;;;;;31.70;69.40;;;;;;5053582;28;20268;-77
2023/06/21 05:33:15;;;;;;;;;;;31.90;70.10;;;;;;5052841;28;19928;-78
2023/06/21 05:35:40;;;;;;;;;;;32.20;69.30;;;;;;5050734;28;19920;-77
2023/06/21 05:38:06;;;;;;;;;;;32.30;66.50;;;;;;5033257;28;19920;-78
2023/06/21 05:40:31;;;;;;;;;;;32.30;68.20;;;;;;5051218;28;19928;-78
2023/06/21 05:56:08;;;;;;;;;;;33.90;67.90;;;;;;6202512;22;1892099;-77
2023/06/21 05:58:34;;;;;;;;;;;34.10;68.50;;;;;;6284795;22;19911;-77
2023/06/21 06:00:59;;;;;;;;;;;34.40;69.50;;;;;;6284747;22;19990;-77
2023/06/21 06:03:25;;;;;;;;;;;34.60;68.10;;;;;;6278807;22;19982;-77
2023/06/21 06:05:52;;;;;;;;;;;34.70;68.80;;;;;;6283178;22;19907;-79
2023/06/21 06:08:18;;;;;;;;;;;34.50;68.50;;;;;;6283318;22;19907;-79
2023/06/21 06:10:43;;;;;;;;;;;34.40;68.20;;;;;;6284431;22;19907;-78
2023/06/21 06:13:09;;;;;;;;;;;34.40;69.00;;;;;;6283864;22;20276;-79
2023/06/21 06:15:34;;;;;;;;;;;34.50;69.80;;;;;;6283846;22;19908;-78
2023/06/21 06:17:59;;;;;;;;;;;34.80;70.80;;;;;;6282584;22;19908;-78
2023/06/21 06:20:26;;;;;;;;;;;35.20;70.20;;;;;;6255677;22;19915;-78
2023/06/21 06:22:52;;;;;;;;;;;35.50;69.50;;;;;;6283113;22;19950;-79
2023/06/21 06:25:17;;;;;;;;;;;35.90;69.90;;;;;;6282913;22;19973;-78
2023/06/21 06:27:43;;;;;;;;;;;36.10;69.90;;;;;;6282579;22;19907;-80
2023/06/21 06:30:08;;;;;;;;;;;36.00;69.70;;;;;;6282709;22;19986;-78
2023/06/21 06:32:34;;;;;;;;;;;36.10;70.90;;;;;;6282942;22;19908;-77
2023/06/21 06:34:59;;;;;;;;;;;36.30;70.60;;;;;;6283384;22;19986;-76
2023/06/21 06:37:25;;;;;;;;;;;36.40;70.80;;;;;;6283178;22;20321;-77
2023/06/21 06:39:51;;;;;;;;;;;36.50;70.70;;;;;;6282460;22;19911;-76
2023/06/21 06:42:16;;;;;;;;;;;36.60;71.10;;;;;;6283316;22;19918;-77
2023/06/21 06:44:43;;;;;;;;;;;36.80;70.70;;;;;;6282767;22;19982;-76
2023/06/21 06:47:09;;;;;;;;;;;37.10;67.50;;;;;;6294243;22;19988;-77
2023/06/21 06:49:34;;;;;;;;;;;37.10;64.70;;;;;;6314218;22;19907;-76
2023/06/21 06:52:00;;;;;;;;;;;37.20;64.30;;;;;;6313182;22;20246;-77
2023/06/21 06:54:25;;;;;;;;;;;37.30;66.00;;;;;;6306772;22;19918;-77
2023/06/21 06:56:51;;;;;;;;;;;37.40;65.10;;;;;;6305169;22;19902;-77
2023/06/21 06:59:16;;;;;;;;;;;37.80;65.70;;;;;;6305808;22;19918;-75
2023/06/21 07:01:41;;;;;;;;;;;38.30;63.40;;;;;;6305848;22;19910;-76
2023/06/21 07:04:07;;;;;;;;;;;38.70;54.90;;;;;;6306537;22;19911;-76
2023/06/21 07:06:33;;;;;;;;;;;38.90;52.60;;;;;;6306889;22;19994;-77
2023/06/21 07:09:00;;;;;;;;;;;39.00;50.70;;;;;;6306480;22;20317;-77
2023/06/21 07:11:25;;;;;;;;;;;39.20;51.10;;;;;;6306965;22;19924;-73
2023/06/21 07:13:51;;;;;;;;;;;39.50;52.30;;;;;;6306401;22;19903;-77
2023/06/21 07:16:16;;;;;;;;;;;39.90;47.00;;;;;;6306765;22;19906;-77
2023/06/21 07:18:41;;;;;;;;;;;40.20;45.40;;;;;;6306788;22;19905;-76
2023/06/21 07:21:07;;;;;;;;;;;40.30;43.70;;;;;;6305959;22;19972;-75
2023/06/21 07:23:32;;;;;;;;;;;40.50;40.40;;;;;;6306954;22;19903;-77
2023/06/21 07:25:58;;;;;;;;;;;40.70;38.50;;;;;;6305897;22;20130;-77
2023/06/21 07:28:23;;;;;;;;;;;40.90;36.60;;;;;;6307124;22;19918;-77
2023/06/21 07:30:49;;;;;;;;;;;41.00;34.80;;;;;;6306691;22;19919;-77
2023/06/21 07:33:14;;;;;;;;;;;41.00;34.10;;;;;;6306386;22;19930;-76
2023/06/21 07:35:40;;;;;;;;;;;41.10;35.00;;;;;;6306596;22;19915;-76
2023/06/21 07:38:06;;;;;;;;;;;41.20;35.00;;;;;;6306222;22;19917;-77
2023/06/21 07:40:32;;;;;;;;;;;41.20;33.10;;;;;;6306984;22;19910;-76
2023/06/21 07:42:57;;;;;;;;;;;41.10;33.90;;;;;;6306790;22;19951;-77
2023/06/21 07:45:23;;;;;;;;;;;41.10;34.40;;;;;;6306204;22;20228;-76
2023/06/21 07:47:48;;;;;;;;;;;41.30;33.00;;;;;;6306441;22;20325;-77
2023/06/21 07:50:14;;;;;;;;;;;41.40;33.90;;;;;;6305908;22;19911;-77
2023/06/21 07:52:39;;;;;;;;;;;41.60;34.00;;;;;;6306388;22;19949;-76
2023/06/21 07:55:05;;;;;;;;;;;41.80;32.90;;;;;;6305919;22;20365;-77
2023/06/21 07:57:32;;;;;;;;;;;42.00;32.50;;;;;;6306725;22;20335;-77
2023/06/21 08:00:02;;;;;;;;;;;42.20;31.60;;;;;;6306616;22;20378;-77
2023/06/21 08:02:28;;;;;;;;;;;42.50;30.50;;;;;;6306090;22;19988;-76
2023/06/21 08:04:53;;;;;;;;;;;42.70;28.80;;;;;;6305087;22;19915;-77
2023/06/21 08:07:19;;;;;;;;;;;42.90;28.50;;;;;;6305722;22;20380;-75
2023/06/21 08:09:44;;;;;;;;;;;43.00;28.80;;;;;;6306410;22;19943;-77
2023/06/21 08:12:10;;;;;;;;;;;43.30;28.30;;;;;;6278016;22;19903;-76
2023/06/21 08:14:35;;;;;;;;;;;43.50;28.60;;;;;;6305895;22;19915;-77
2023/06/21 08:17:01;;;;;;;;;;;43.80;28.00;;;;;;6306217;22;19903;-76
2023/06/21 08:19:26;;;;;;;;;;;44.00;27.40;;;;;;6306385;22;19910;-76
2023/06/21 08:21:51;;;;;;;;;;;44.10;27.00;;;;;;6305206;22;19957;-76
2023/06/21 08:24:17;;;;;;;;;;;44.00;26.50;;;;;;6306045;22;20210;-76
2023/06/21 08:26:42;;;;;;;;;;;44.00;26.70;;;;;;6306244;22;19903;-76
2023/06/21 08:29:08;;;;;;;;;;;43.70;26.20;;;;;;6306029;22;19961;-76
2023/06/21 08:31:33;;;;;;;;;;;43.30;26.30;;;;;;6305990;22;19903;-75
2023/06/21 08:33:58;;;;;;;;;;;43.10;26.50;;;;;;6277999;22;19926;-76
2023/06/21 08:36:26;;;;;;;;;;;43.00;26.60;;;;;;6306295;22;19903;-76
2023/06/21 08:38:51;;;;;;;;;;;43.10;26.70;;;;;;6306031;22;19903;-77
2023/06/21 08:41:17;;;;;;;;;;;43.30;26.70;;;;;;6304836;22;20344;-76
2023/06/21 08:43:42;;;;;;;;;;;43.20;26.50;;;;;;6305775;22;19903;-73
2023/06/21 08:46:08;;;;;;;;;;;43.20;26.70;;;;;;6305689;22;19903;-76
2023/06/21 08:48:35;;;;;;;;;;;43.50;26.80;;;;;;6304997;22;20217;-76
2023/06/21 08:51:04;;;;;;;;;;;43.70;26.30;;;;;;6305847;22;19907;-76
2023/06/21 08:53:49;;;;;;;;;;;43.80;26.10;;;;;;6305825;22;20321;-76
2023/06/21 08:56:18;;;;;;;;;;;44.00;25.70;;;;;;6305824;22;19915;-75
2023/06/21 08:58:48;;;;;;;;;;;44.00;25.80;;;;;;6305191;22;19903;-76
2023/06/21 09:01:15;;;;;;;;;;;44.30;25.60;;;;;;6306037;22;20386;-76
2023/06/21 09:03:46;;;;;;;;;;;44.30;25.10;;;;;;6305520;22;19998;-76
2023/06/21 09:06:14;;;;;;;;;;;44.20;25.20;;;;;;6305911;22;19930;-76
2023/06/21 09:08:41;;;;;;;;;;;44.30;25.30;;;;;;6306050;22;20378;-77
2023/06/21 09:11:10;;;;;;;;;;;44.40;24.80;;;;;;6305653;22;19907;-76
2023/06/21 09:13:36;;;;;;;;;;;44.20;24.90;;;;;;6304997;22;19952;-76
2023/06/21 09:16:02;;;;;;;;;;;43.90;24.80;;;;;;6305425;22;19961;-76
2023/06/21 09:18:35;;;;;;;;;;;43.60;25.20;;;;;;6305142;22;19903;-77
2023/06/21 09:21:01;;;;;;;;;;;43.70;25.20;;;;;;6305317;22;19907;-77
2023/06/21 09:23:27;;;;;;;;;;;43.80;25.10;;;;;;6304654;22;20021;-77
2023/06/21 09:25:52;;;;;;;;;;;43.40;25.10;;;;;;6305031;22;19909;-77
2023/06/21 09:28:18;;;;;;;;;;;43.10;25.10;;;;;;6305136;22;20313;-76
2023/06/21 09:30:44;;;;;;;;;;;42.80;25.20;;;;;;6306247;22;19949;-77
2023/06/21 09:33:10;;;;;;;;;;;42.40;25.60;;;;;;6304391;22;19915;-76
2023/06/21 09:35:38;;;;;;;;;;;42.00;26.00;;;;;;6306018;22;20234;-76
2023/06/21 09:38:18;;;;;;;;;;;41.90;26.30;;;;;;6305040;22;20328;-73
2023/06/21 09:40:44;;;;;;;;;;;41.70;26.30;;;;;;6306232;22;19907;-76
2023/06/21 09:43:09;;;;;;;;;;;41.50;26.70;;;;;;6305469;22;19989;-77
2023/06/21 09:45:35;;;;;;;;;;;41.30;26.60;;;;;;6304805;22;19991;-76
2023/06/21 09:48:01;;;;;;;;;;;41.20;26.90;;;;;;6305128;22;19914;-76
2023/06/21 09:50:26;;;;;;;;;;;41.40;27.30;;;;;;6304948;22;20414;-76
2023/06/21 09:52:51;;;;;;;;;;;41.70;26.50;;;;;;6305321;22;19907;-76
2023/06/21 09:55:17;;;;;;;;;;;42.00;26.40;;;;;;6305528;22;19915;-76
2023/06/21 09:57:43;;;;;;;;;;;41.90;26.10;;;;;;6304479;22;19910;-76
2023/06/21 10:00:10;;;;;;;;;;;41.80;26.20;;;;;;6305558;22;19915;-76
2023/06/21 10:02:39;;;;;;;;;;;41.50;26.30;;;;;;6304499;22;19907;-76
2023/06/21 10:05:05;;;;;;;;;;;41.10;26.60;;;;;;6305078;22;19942;-76
2023/06/21 10:07:30;;;;;;;;;;;40.50;26.80;;;;;;6277439;22;19903;-76
2023/06/21 10:09:56;;;;;;;;;;;40.10;27.30;;;;;;6305117;22;19918;-76
2023/06/21 10:12:21;;;;;;;;;;;39.70;27.70;;;;;;6305382;22;19903;-75
2023/06/21 10:14:47;;;;;;;;;;;39.60;28.30;;;;;;6305189;22;19915;-76
2023/06/21 10:17:13;;;;;;;;;;;39.80;28.40;;;;;;6304809;22;19903;-75
2023/06/21 10:19:40;;;;;;;;;;;40.00;28.10;;;;;;6304288;22;20399;-76
2023/06/21 10:22:10;;;;;;;;;;;40.10;28.10;;;;;;6304950;22;19949;-75
2023/06/21 10:24:46;;;;;;;;;;;40.40;28.00;;;;;;6305271;22;19953;-72
2023/06/21 10:27:12;;;;;;;;;;;40.60;27.70;;;;;;6305070;22;19978;-75
2023/06/21 10:29:38;;;;;;;;;;;40.70;27.40;;;;;;6307003;22;19947;-74
2023/06/21 10:32:04;;;;;;;;;;;40.70;27.60;;;;;;6305410;22;20317;-75
2023/06/21 10:34:33;;;;;;;;;;;40.70;27.40;;;;;;6307412;22;19942;-75
2023/06/21 10:37:02;;;;;;;;;;;41.00;27.70;;;;;;6307540;22;19906;-76
2023/06/21 10:39:32;;;;;;;;;;;41.30;27.40;;;;;;6307094;22;19918;-76
2023/06/21 10:41:59;;;;;;;;;;;41.50;26.90;;;;;;6305625;22;19917;-76
2023/06/21 10:44:25;;;;;;;;;;;41.60;26.70;;;;;;6306803;22;19997;-75
2023/06/21 10:46:51;;;;;;;;;;;41.50;26.50;;;;;;6306566;22;19903;-72
2023/06/21 10:49:18;;;;;;;;;;;41.30;26.20;;;;;;6278617;22;19911;-76
2023/06/21 10:51:44;;;;;;;;;;;41.00;26.40;;;;;;6306638;22;20352;-76
2023/06/21 10:54:10;;;;;;;;;;;40.70;26.90;;;;;;6306261;22;19985;-76
2023/06/21 10:56:36;;;;;;;;;;;40.30;27.00;;;;;;6306676;22;19941;-75
2023/06/21 10:59:01;;;;;;;;;;;40.10;27.30;;;;;;6306970;22;19915;-75
2023/06/21 11:01:27;;;;;;;;;;;40.00;27.70;;;;;;6306193;22;19907;-76
2023/06/21 11:03:52;;;;;;;;;;;39.90;27.80;;;;;;6307049;22;19957;-75
2023/06/21 11:06:22;;;;;;;;;;;39.80;28.10;;;;;;6305998;22;19903;-75
2023/06/21 11:08:47;;;;;;;;;;;40.10;28.30;;;;;;6306761;22;20296;-76
2023/06/21 11:11:28;;;;;;;;;;;40.40;28.20;;;;;;6306691;22;19911;-76
2023/06/21 11:13:53;;;;;;;;;;;41.00;28.00;;;;;;6306034;22;20394;-75
2023/06/21 11:16:19;;;;;;;;;;;41.50;27.40;;;;;;6306106;22;19910;-76
2023/06/21 11:18:56;;;;;;;;;;;42.00;26.70;;;;;;6306719;22;19907;-76
2023/06/21 11:21:47;;;;;;;;;;;42.30;26.30;;;;;;6305741;22;19910;-76
2023/06/21 11:24:17;;;;;;;;;;;42.70;26.00;;;;;;6306678;22;20371;-76
2023/06/21 11:27:01;;;;;;;;;;;42.80;25.90;;;;;;6305614;22;20335;-76
2023/06/21 11:29:33;;;;;;;;;;;43.00;25.60;;;;;;6306096;22;19911;-76
2023/06/21 11:32:11;;;;;;;;;;;42.90;25.40;;;;;;6305923;22;19956;-76
2023/06/21 11:34:49;;;;;;;;;;;42.90;25.20;;;;;;6306701;22;19906;-76
2023/06/21 11:37:33;;;;;;;;;;;43.00;24.90;;;;;;6306376;22;19907;-77
2023/06/21 11:39:59;;;;;;;;;;;43.00;24.90;;;;;;6306517;22;19969;-76
2023/06/21 11:42:25;;;;;;;;;;;42.90;25.00;;;;;;6306044;22;19911;-77
2023/06/21 11:44:53;;;;;;;;;;;42.80;24.70;;;;;;6305311;22;19914;-77
2023/06/21 11:47:18;;;;;;;;;;;42.80;25.20;;;;;;6306374;22;20329;-76
2023/06/21 11:49:48;;;;;;;;;;;42.80;24.50;;;;;;6306459;22;19990;-77
2023/06/21 11:52:13;;;;;;;;;;;42.70;24.30;;;;;;6305431;22;20325;-76
2023/06/21 11:54:39;;;;;;;;;;;42.50;24.90;;;;;;6305315;22;19925;-76
2023/06/21 11:57:05;;;;;;;;;;;42.60;24.40;;;;;;6304864;22;19907;-76
2023/06/21 11:59:31;;;;;;;;;;;42.50;24.50;;;;;;6306066;22;19989;-76
2023/06/21 12:02:02;;;;;;;;;;;42.50;24.50;;;;;;6306009;22;19907;-76
2023/06/21 12:04:27;;;;;;;;;;;42.70;24.50;;;;;;6306433;22;19997;-76
2023/06/21 12:06:53;;;;;;;;;;;42.70;23.60;;;;;;6306057;22;19984;-76
2023/06/21 12:09:19;;;;;;;;;;;42.70;24.20;;;;;;6305488;22;19919;-75
2023/06/21 12:11:47;;;;;;;;;;;42.90;24.10;;;;;;6305665;22;19907;-75
2023/06/21 12:14:13;;;;;;;;;;;43.20;24.30;;;;;;6305506;22;20236;-76
2023/06/21 12:16:40;;;;;;;;;;;43.50;23.70;;;;;;6305995;22;19953;-75
2023/06/21 12:19:07;;;;;;;;;;;43.60;23.40;;;;;;6278414;22;19960;-75
2023/06/21 12:21:33;;;;;;;;;;;43.40;23.10;;;;;;6304607;22;19918;-74
2023/06/21 12:23:59;;;;;;;;;;;43.30;23.40;;;;;;6306459;22;19911;-76
2023/06/21 12:26:27;;;;;;;;;;;43.20;23.40;;;;;;6305120;22;19910;-76
2023/06/21 12:28:52;;;;;;;;;;;42.90;23.70;;;;;;6305630;22;19903;-77
2023/06/21 12:31:18;;;;;;;;;;;42.80;23.70;;;;;;6305609;22;20398;-75
2023/06/21 12:33:43;;;;;;;;;;;42.80;24.10;;;;;;6305873;22;19903;-76
2023/06/21 12:36:11;;;;;;;;;;;42.80;23.60;;;;;;6304846;22;19918;-76
2023/06/21 12:38:36;;;;;;;;;;;42.40;23.70;;;;;;6278342;22;19986;-75
2023/06/21 12:41:02;;;;;;;;;;;42.30;24.00;;;;;;6305593;22;19946;-76
2023/06/21 12:43:43;;;;;;;;;;;42.10;23.60;;;;;;6305618;22;19960;-76
2023/06/21 12:46:09;;;;;;;;;;;41.60;24.10;;;;;;6305075;22;19911;-76
2023/06/21 12:48:35;;;;;;;;;;;41.00;24.80;;;;;;6305927;22;19903;-76
2023/06/21 12:51:00;;;;;;;;;;;40.40;25.40;;;;;;6305935;22;20210;-76
2023/06/21 12:53:30;;;;;;;;;;;40.00;26.00;;;;;;6277953;22;19913;-76
2023/06/21 12:56:03;;;;;;;;;;;39.70;26.50;;;;;;6277770;22;19926;-76
2023/06/21 12:58:30;;;;;;;;;;;39.50;26.50;;;;;;6306224;22;19914;-76
2023/06/21 13:00:55;;;;;;;;;;;39.30;27.00;;;;;;6305640;22;19911;-76
2023/06/21 13:03:20;;;;;;;;;;;39.40;27.20;;;;;;6305446;22;20294;-76
2023/06/21 13:05:46;;;;;;;;;;;39.50;27.70;;;;;;6306197;22;19911;-76
2023/06/21 13:08:11;;;;;;;;;;;39.70;27.40;;;;;;6305093;22;19930;-76
2023/06/21 13:10:37;;;;;;;;;;;39.60;27.20;;;;;;6305475;22;19946;-76
2023/06/21 13:13:03;;;;;;;;;;;39.30;27.60;;;;;;6305780;22;19903;-76
2023/06/21 13:15:28;;;;;;;;;;;39.00;28.10;;;;;;6304560;22;20730;-76
2023/06/21 13:17:56;;;;;;;;;;;38.80;28.10;;;;;;6305485;22;19902;-76
2023/06/21 13:20:22;;;;;;;;;;;38.70;28.20;;;;;;6305839;22;19961;-76
2023/06/21 13:22:48;;;;;;;;;;;38.40;28.20;;;;;;6305071;22;20317;-76
2023/06/21 13:25:13;;;;;;;;;;;38.30;28.70;;;;;;6305158;22;20443;-76
2023/06/21 13:27:39;;;;;;;;;;;38.30;28.90;;;;;;6303581;22;19911;-77
2023/06/21 13:30:04;;;;;;;;;;;38.40;29.00;;;;;;6305100;22;19937;-77
2023/06/21 13:32:30;;;;;;;;;;;38.70;28.70;;;;;;6305405;22;19946;-77
2023/06/21 13:34:55;;;;;;;;;;;39.10;28.40;;;;;;6304926;22;19917;-77
2023/06/21 13:37:21;;;;;;;;;;;39.10;28.20;;;;;;6305302;22;19903;-74
2023/06/21 13:39:46;;;;;;;;;;;38.90;28.00;;;;;;6305378;22;19911;-77
2023/06/21 13:42:12;;;;;;;;;;;38.50;28.30;;;;;;6305409;22;19914;-76
2023/06/21 13:44:37;;;;;;;;;;;38.30;28.50;;;;;;6305733;22;19949;-74
2023/06/21 13:47:03;;;;;;;;;;;38.20;28.60;;;;;;6277145;22;19956;-75
2023/06/21 13:49:28;;;;;;;;;;;38.20;29.00;;;;;;6276731;22;19982;-76
2023/06/21 13:51:54;;;;;;;;;;;38.00;28.90;;;;;;6276623;22;19910;-76
2023/06/21 13:54:19;;;;;;;;;;;37.80;29.20;;;;;;6304060;22;19968;-75
2023/06/21 13:56:44;;;;;;;;;;;37.80;29.30;;;;;;6305440;22;20317;-76
2023/06/21 13:59:10;;;;;;;;;;;37.80;29.70;;;;;;6305394;22;19911;-75
2023/06/21 14:01:35;;;;;;;;;;;37.80;29.70;;;;;;6305597;22;19910;-76
2023/06/21 14:04:05;;;;;;;;;;;37.80;29.70;;;;;;6306603;22;20325;-75
2023/06/21 14:06:30;;;;;;;;;;;37.80;29.50;;;;;;6307930;22;20321;-76
2023/06/21 14:08:56;;;;;;;;;;;38.20;29.30;;;;;;6307725;22;19911;-76
2023/06/21 14:11:21;;;;;;;;;;;38.20;28.90;;;;;;6307605;22;19903;-76
2023/06/21 14:13:46;;;;;;;;;;;38.10;29.10;;;;;;6308034;22;19925;-76
2023/06/21 14:16:12;;;;;;;;;;;37.70;29.60;;;;;;6279294;22;19903;-76
2023/06/21 14:18:37;;;;;;;;;;;37.80;29.90;;;;;;6307193;22;19907;-74
2023/06/21 14:21:03;;;;;;;;;;;37.90;29.80;;;;;;6306433;22;19903;-76
2023/06/21 14:23:28;;;;;;;;;;;37.80;29.40;;;;;;6307032;22;19971;-76
2023/06/21 14:25:54;;;;;;;;;;;37.70;29.30;;;;;;6307089;22;19918;-78